createdAt,value
2022-08-08T00:02:04.049Z,34.82
2022-08-08T00:04:49.389Z,34.79
2022-08-08T00:07:28.534Z,34.74
2022-08-08T00:10:15.139Z,34.68
2022-08-08T00:12:56.300Z,34.74
2022-08-08T00:15:57.707Z,34.74
2022-08-08T00:18:17.887Z,34.72
2022-08-08T00:20:52.191Z,34.66
2022-08-08T00:23:21.525Z,34.57
2022-08-08T00:25:57.588Z,34.71
2022-08-08T00:28:35.593Z,34.68
2022-08-08T00:32:20.613Z,34.64
2022-08-08T00:34:56.745Z,34.66
2022-08-08T00:38:01.253Z,34.57
2022-08-08T00:41:12.220Z,34.62
2022-08-08T00:43:45.753Z,34.54
2022-08-08T00:46:57.038Z,34.58
2022-08-08T00:49:32.311Z,34.62
2022-08-08T00:52:21.597Z,34.70
2022-08-08T00:55:22.296Z,34.64
2022-08-08T00:58:54.760Z,34.68
2022-08-08T01:01:51.355Z,34.68
2022-08-08T01:04:47.443Z,34.69
2022-08-08T01:07:34.531Z,34.69
2022-08-08T01:10:44.295Z,34.72
2022-08-08T01:13:37.994Z,34.68
2022-08-08T01:17:10.073Z,34.69
2022-08-08T01:20:13.182Z,34.71
2022-08-08T01:23:04.254Z,34.73
2022-08-08T01:26:02.267Z,34.81
2022-08-08T01:28:51.307Z,34.75
2022-08-08T01:32:13.376Z,34.77
2022-08-08T01:35:11.982Z,34.76
2022-08-08T01:37:57.449Z,34.77
2022-08-08T01:40:40.744Z,34.72
2022-08-08T01:43:10.066Z,34.76
2022-08-08T01:46:03.490Z,34.69
2022-08-08T01:49:06.212Z,34.80
2022-08-08T01:52:33.889Z,34.79
2022-08-08T01:55:44.952Z,34.78
2022-08-08T01:58:15.302Z,34.74
2022-08-08T02:01:20.471Z,34.76
2022-08-08T02:04:02.083Z,34.74
2022-08-08T02:06:50.157Z,34.74
2022-08-08T02:10:01.619Z,34.73
2022-08-08T02:12:34.909Z,34.72
2022-08-08T02:15:34.905Z,34.77
2022-08-08T02:18:24.906Z,34.75
2022-08-08T02:21:20.364Z,34.79
2022-08-08T02:24:17.581Z,34.82
2022-08-08T02:26:49.343Z,34.88
2022-08-08T02:29:51.956Z,34.75
2022-08-08T02:32:52.411Z,34.86
2022-08-08T02:36:04.408Z,34.87
2022-08-08T02:38:49.002Z,34.91
2022-08-08T02:41:58.922Z,34.88
2022-08-08T02:45:01.198Z,34.89
2022-08-08T02:48:27.697Z,34.93
2022-08-08T02:51:30.516Z,34.88
2022-08-08T02:54:24.009Z,34.88
2022-08-08T02:57:22.407Z,34.93
2022-08-08T03:00:31.101Z,34.81
2022-08-08T03:03:08.077Z,34.89
2022-08-08T03:05:51.362Z,34.81
2022-08-08T03:08:34.106Z,34.87
2022-08-08T03:12:01.838Z,34.88
2022-08-08T03:15:57.497Z,34.92
2022-08-08T03:17:59.638Z,34.86
2022-08-08T03:20:51.366Z,34.88
2022-08-08T03:23:19.847Z,34.87
2022-08-08T03:25:46.626Z,34.82
2022-08-08T03:28:35.736Z,34.87
2022-08-08T03:31:25.273Z,34.83
2022-08-08T03:33:58.895Z,34.83
2022-08-08T03:36:27.573Z,34.80
2022-08-08T03:39:07.560Z,34.78
2022-08-08T03:42:27.228Z,34.76
2022-08-08T03:44:35.497Z,34.74
2022-08-08T03:47:14.010Z,34.88
2022-08-08T03:50:01.068Z,34.80
2022-08-08T03:52:30.894Z,34.87
2022-08-08T03:55:09.793Z,34.89
2022-08-08T03:58:30.523Z,34.84
2022-08-08T04:00:26.532Z,34.89
2022-08-08T04:03:11.338Z,34.97
2022-08-08T04:05:39.985Z,34.95
2022-08-08T04:08:33.744Z,34.98
2022-08-08T04:11:02.387Z,34.98
2022-08-08T04:14:33.297Z,35.02
2022-08-08T04:16:38.372Z,34.98
2022-08-08T04:19:23.339Z,35.02
2022-08-08T04:21:50.848Z,34.96
2022-08-08T04:24:19.555Z,34.93
2022-08-08T04:26:58.032Z,34.96
2022-08-08T04:29:25.445Z,34.98
2022-08-08T04:31:59.855Z,34.97
2022-08-08T04:34:31.833Z,35.01
2022-08-08T04:36:59.251Z,34.96
2022-08-08T04:40:03.607Z,35.01
2022-08-08T04:42:15.955Z,35.01
2022-08-08T04:44:43.717Z,35.04
2022-08-08T04:47:14.712Z,35.45
2022-08-08T04:49:58.576Z,35.28
2022-08-08T04:52:34.311Z,34.95
2022-08-08T04:55:02.122Z,34.55
2022-08-08T04:57:28.929Z,34.19
2022-08-08T04:59:55.599Z,34.04
2022-08-08T05:02:30.428Z,34.16
2022-08-08T05:04:59.621Z,34.13
2022-08-08T05:07:26.983Z,33.94
2022-08-08T05:10:05.337Z,33.92
2022-08-08T05:12:36.811Z,33.84
2022-08-08T05:15:04.524Z,33.57
2022-08-08T05:17:37.433Z,33.37
2022-08-08T05:20:18.596Z,33.44
2022-08-08T05:22:46.124Z,33.49
2022-08-08T05:25:15.840Z,33.56
2022-08-08T05:27:44.284Z,33.60
2022-08-08T05:30:11.873Z,33.70
2022-08-08T05:32:39.350Z,33.78
2022-08-08T05:35:06.853Z,33.86
2022-08-08T05:37:53.128Z,33.90
2022-08-08T05:40:28.298Z,34.01
2022-08-08T05:42:59.819Z,33.74
2022-08-08T05:45:41.654Z,33.62
2022-08-08T05:48:15.475Z,33.52
2022-08-08T05:50:42.109Z,33.32
2022-08-08T05:53:53.502Z,33.37
2022-08-08T05:56:09.545Z,33.46
2022-08-08T05:58:57.062Z,33.51
2022-08-08T06:01:55.444Z,33.76
2022-08-08T06:04:13.854Z,33.41
2022-08-08T06:06:50.348Z,33.22
2022-08-08T06:09:41.518Z,33.01
2022-08-08T06:12:04.096Z,32.92
2022-08-08T06:14:31.079Z,33.08
2022-08-08T06:17:00.727Z,33.42
2022-08-08T06:19:29.195Z,33.69
2022-08-08T06:22:31.966Z,33.73
2022-08-08T06:24:51.194Z,33.48
2022-08-08T06:27:24.224Z,33.33
2022-08-08T06:30:03.751Z,33.17
2022-08-08T06:32:33.551Z,32.83
2022-08-08T06:36:04.827Z,32.83
2022-08-08T06:37:59.842Z,32.65
2022-08-08T06:40:36.949Z,32.20
2022-08-08T06:43:09.560Z,32.06
2022-08-08T06:45:38.598Z,31.99
2022-08-08T06:48:05.772Z,32.13
2022-08-08T06:50:33.500Z,32.31
2022-08-08T06:53:09.644Z,32.25
2022-08-08T06:55:41.830Z,31.69
2022-08-08T06:58:08.706Z,31.37
2022-08-08T07:00:36.263Z,31.38
2022-08-08T07:03:09.416Z,31.51
2022-08-08T07:06:01.993Z,30.87
2022-08-08T07:08:38.758Z,31.48
2022-08-08T07:11:07.623Z,30.84
2022-08-08T07:13:39.412Z,31.01
2022-08-08T07:16:32.028Z,30.89
2022-08-08T07:19:15.351Z,30.99
2022-08-08T07:25:06.882Z,30.68
2022-08-08T07:27:47.441Z,30.52
2022-08-08T07:30:25.539Z,30.52
2022-08-08T07:32:53.179Z,30.72
2022-08-08T07:35:19.780Z,30.48
2022-08-08T07:37:55.849Z,30.43
2022-08-08T07:40:32.225Z,30.36
2022-08-08T07:42:59.831Z,30.21
2022-08-08T07:45:34.768Z,30.35
2022-08-08T07:48:12.999Z,30.37
2022-08-08T07:50:39.587Z,30.61
2022-08-08T07:53:52.027Z,30.47
2022-08-08T07:56:06.161Z,30.41
2022-08-08T07:58:38.583Z,30.29
2022-08-08T08:01:07.235Z,30.36
2022-08-08T08:03:45.693Z,30.77
2022-08-08T08:06:14.711Z,30.71
2022-08-08T08:08:52.124Z,30.89
2022-08-08T08:11:20.951Z,30.38
2022-08-08T08:14:07.471Z,30.39
2022-08-08T08:16:38.822Z,30.74
2022-08-08T08:19:12.591Z,30.78
2022-08-08T08:21:57.164Z,30.70
2022-08-08T08:24:30.926Z,30.46
2022-08-08T08:26:59.023Z,30.25
2022-08-08T08:29:28.011Z,30.23
2022-08-08T08:31:57.965Z,30.39
2022-08-08T08:34:32.550Z,30.21
2022-08-08T08:37:07.567Z,30.51
2022-08-08T08:40:00.519Z,30.28
2022-08-08T08:42:31.999Z,30.08
2022-08-08T08:45:20.828Z,29.89
2022-08-08T08:47:48.730Z,29.38
2022-08-08T08:50:33.389Z,29.00
2022-08-08T08:53:28.016Z,29.06
2022-08-08T08:56:01.367Z,29.35
2022-08-08T08:58:39.595Z,29.30
2022-08-08T09:01:09.896Z,28.70
2022-08-08T09:03:47.217Z,28.93
2022-08-08T09:06:33.203Z,28.87
2022-08-08T09:09:07.459Z,29.65
2022-08-08T09:12:01.344Z,29.85
2022-08-08T09:14:32.845Z,29.70
2022-08-08T09:17:04.145Z,29.90
2022-08-08T09:21:58.841Z,29.90
2022-08-08T09:22:26.755Z,29.72
2022-08-08T09:24:54.808Z,29.84
2022-08-08T09:27:22.802Z,30.44
2022-08-08T09:30:14.709Z,30.76
2022-08-08T09:32:50.328Z,30.72
2022-08-08T09:35:37.136Z,30.64
2022-08-08T09:38:05.825Z,30.89
2022-08-08T09:40:46.428Z,31.01
2022-08-08T09:44:05.115Z,32.08
2022-08-08T09:46:16.968Z,32.34
2022-08-08T09:48:52.480Z,32.55
2022-08-08T09:51:23.174Z,33.30
2022-08-08T09:54:13.965Z,32.93
2022-08-08T09:56:44.440Z,32.69
2022-08-08T09:59:39.456Z,33.35
2022-08-08T10:02:02.961Z,34.06
2022-08-08T10:04:47.373Z,33.62
2022-08-08T10:07:17.944Z,33.42
2022-08-08T10:09:59.666Z,33.90
2022-08-08T10:12:53.298Z,33.71
2022-08-08T10:15:24.538Z,33.61
2022-08-08T10:18:06.161Z,33.45
2022-08-08T10:20:57.368Z,32.87
2022-08-08T10:23:45.011Z,33.27
2022-08-08T10:26:30.305Z,32.87
2022-08-08T10:29:05.789Z,32.99
2022-08-08T10:31:55.886Z,33.24
2022-08-08T10:34:24.059Z,33.61
2022-08-08T10:36:53.852Z,33.46
2022-08-08T10:39:31.400Z,33.29
2022-08-08T10:42:16.382Z,33.72
2022-08-08T10:44:43.647Z,33.53
2022-08-08T10:47:21.122Z,33.93
2022-08-08T10:50:00.358Z,33.41
2022-08-08T10:52:31.754Z,33.61
2022-08-08T10:54:59.770Z,34.20
2022-08-08T10:58:05.904Z,33.48
2022-08-08T11:00:35.651Z,33.78
2022-08-08T11:03:18.687Z,32.84
2022-08-08T11:06:03.170Z,32.37
2022-08-08T11:08:31.736Z,32.30
2022-08-08T11:11:32.612Z,32.25
2022-08-08T11:13:59.981Z,32.15
2022-08-08T11:16:32.545Z,32.15
2022-08-08T11:19:10.600Z,32.23
2022-08-08T11:21:53.825Z,32.42
2022-08-08T11:24:23.036Z,32.36
2022-08-08T11:26:56.865Z,32.39
2022-08-08T11:29:24.098Z,32.46
2022-08-08T11:32:09.248Z,32.78
2022-08-08T11:35:07.383Z,32.82
2022-08-08T11:38:34.403Z,32.94
2022-08-08T11:40:13.937Z,33.23
2022-08-08T11:42:42.632Z,33.17
2022-08-08T11:45:10.243Z,33.23
2022-08-08T11:48:02.838Z,33.30
2022-08-08T11:50:32.338Z,33.29
2022-08-08T11:53:00.837Z,33.33
2022-08-08T11:55:35.402Z,33.25
2022-08-08T11:58:15.105Z,33.49
2022-08-08T12:00:48.977Z,33.45
2022-08-08T12:03:17.469Z,33.76
2022-08-08T12:05:48.059Z,33.84
2022-08-08T12:08:16.720Z,34.03
2022-08-08T12:10:47.965Z,34.00
2022-08-08T12:13:16.168Z,34.07
2022-08-08T12:15:48.314Z,34.03
2022-08-08T12:18:24.647Z,34.02
2022-08-08T12:20:53.035Z,34.08
2022-08-08T12:23:43.244Z,34.03
2022-08-08T12:26:27.925Z,34.07
2022-08-08T12:29:09.272Z,34.04
2022-08-08T12:31:39.427Z,33.95
2022-08-08T12:34:19.992Z,33.91
2022-08-08T12:36:49.173Z,33.89
2022-08-08T12:40:00.872Z,33.92
2022-08-08T12:42:20.883Z,33.86
2022-08-08T12:44:50.281Z,33.91
2022-08-08T12:47:57.933Z,34.04
2022-08-08T12:50:13.500Z,34.04
2022-08-08T12:52:42.721Z,34.21
2022-08-08T12:55:14.462Z,34.28
2022-08-08T12:58:09.620Z,34.21
2022-08-08T13:00:42.541Z,34.15
2022-08-08T13:03:10.714Z,34.22
2022-08-08T13:06:04.112Z,34.25
2022-08-08T13:08:53.600Z,34.53
2022-08-08T13:12:26.927Z,34.54
2022-08-08T13:14:18.967Z,34.73
2022-08-08T13:16:49.089Z,34.81
2022-08-08T13:19:18.069Z,34.94
2022-08-08T13:21:52.672Z,34.91
2022-08-08T13:24:39.393Z,35.06
2022-08-08T13:27:18.827Z,35.17
2022-08-08T13:29:50.961Z,35.42
2022-08-08T13:32:17.705Z,35.64
2022-08-08T13:34:54.584Z,35.65
2022-08-08T13:37:52.174Z,35.73
2022-08-08T13:40:10.151Z,35.91
2022-08-08T13:42:37.285Z,36.05
2022-08-08T13:45:05.904Z,36.04
2022-08-08T13:47:36.531Z,36.07
2022-08-08T13:50:35.932Z,35.79
2022-08-08T13:52:55.028Z,35.57
2022-08-08T13:55:28.853Z,35.33
2022-08-08T13:58:07.594Z,35.35
2022-08-08T14:00:45.074Z,35.09
2022-08-08T14:03:38.371Z,34.98
2022-08-08T14:06:09.305Z,34.85
2022-08-08T14:08:57.071Z,34.81
2022-08-08T14:11:25.332Z,34.83
2022-08-08T14:14:00.472Z,34.85
2022-08-08T14:16:28.285Z,34.82
2022-08-08T14:18:59.335Z,34.77
2022-08-08T14:21:48.714Z,34.86
2022-08-08T14:24:29.632Z,34.79
2022-08-08T14:26:56.748Z,34.71
2022-08-08T14:29:29.911Z,34.65
2022-08-08T14:32:10.965Z,34.69
2022-08-08T14:34:39.929Z,34.78
2022-08-08T14:37:09.559Z,34.86
2022-08-08T14:40:06.074Z,34.73
2022-08-08T14:42:54.415Z,34.67
2022-08-08T14:45:29.221Z,34.72
2022-08-08T14:48:01.447Z,34.76
2022-08-08T14:50:38.057Z,34.71
2022-08-08T14:53:13.421Z,34.69
2022-08-08T14:55:41.901Z,34.78
2022-08-08T14:58:16.198Z,34.91
2022-08-08T15:00:43.653Z,34.75
2022-08-08T15:03:16.219Z,34.77
2022-08-08T15:05:54.421Z,34.75
2022-08-08T15:08:33.921Z,34.77
2022-08-08T15:11:02.323Z,34.71
2022-08-08T15:13:31.203Z,34.69
2022-08-08T15:16:11.748Z,34.72
2022-08-08T15:18:40.907Z,34.70
2022-08-08T15:21:16.546Z,34.66
2022-08-08T15:23:43.417Z,34.63
2022-08-08T15:26:12.998Z,34.67
2022-08-08T15:28:39.799Z,34.70
2022-08-08T15:31:06.392Z,34.78
2022-08-08T15:33:35.491Z,34.84
2022-08-08T15:36:19.539Z,34.82
2022-08-08T15:38:55.174Z,34.88
2022-08-08T15:41:24.688Z,34.81
2022-08-08T15:44:00.878Z,34.81
2022-08-08T15:46:35.125Z,34.94
2022-08-08T15:49:04.088Z,35.00
2022-08-08T15:51:33.504Z,34.99
2022-08-08T15:54:00.325Z,35.26
2022-08-08T15:56:26.937Z,35.33
2022-08-08T15:58:53.502Z,35.27
2022-08-08T16:01:21.039Z,35.23
2022-08-08T16:03:51.724Z,35.37
2022-08-08T16:06:27.656Z,35.43
2022-08-08T16:13:01.178Z,35.35
2022-08-08T16:13:14.220Z,35.33
2022-08-08T16:14:32.495Z,35.35
2022-08-08T16:17:00.158Z,35.45
2022-08-08T16:19:27.143Z,35.45
2022-08-08T16:21:53.993Z,35.48
2022-08-08T16:24:22.980Z,35.48
2022-08-08T16:26:50.792Z,35.48
2022-08-08T16:29:36.957Z,35.61
2022-08-08T16:32:11.289Z,35.41
2022-08-08T16:34:40.281Z,35.54
2022-08-08T16:37:07.213Z,35.38
2022-08-08T16:39:59.635Z,35.57
2022-08-08T16:42:20.344Z,35.39
2022-08-08T16:44:54.257Z,35.41
2022-08-08T16:47:42.175Z,35.40
2022-08-08T16:50:15.131Z,35.43
2022-08-08T16:55:18.133Z,35.42
2022-08-08T16:55:55.837Z,35.47
2022-08-08T16:58:25.774Z,35.59
2022-08-08T17:00:53.279Z,35.56
2022-08-08T17:03:25.107Z,35.59
2022-08-08T17:06:35.264Z,35.74
2022-08-08T17:08:54.108Z,35.75
2022-08-08T17:11:20.766Z,35.77
2022-08-08T17:14:00.764Z,35.76
2022-08-08T17:16:28.695Z,35.77
2022-08-08T17:18:55.404Z,35.80
2022-08-08T17:21:21.991Z,35.75
2022-08-08T17:24:00.312Z,35.86
2022-08-08T17:26:29.206Z,35.86
2022-08-08T17:28:56.419Z,35.83
2022-08-08T17:31:44.420Z,35.90
2022-08-08T17:34:48.428Z,35.89
2022-08-08T17:37:03.240Z,35.91
2022-08-08T17:40:03.245Z,35.87
2022-08-08T17:42:17.881Z,35.97
2022-08-08T17:44:45.255Z,35.91
2022-08-08T17:47:24.110Z,35.93
2022-08-08T17:49:54.589Z,35.98
2022-08-08T17:52:28.271Z,36.03
2022-08-08T17:54:55.995Z,36.02
2022-08-08T17:57:23.488Z,35.98
2022-08-08T17:59:51.815Z,36.10
2022-08-08T18:02:26.204Z,36.11
2022-08-08T18:04:58.066Z,36.11
2022-08-08T18:08:02.572Z,36.20
2022-08-08T18:10:11.527Z,36.18
2022-08-08T18:12:38.149Z,36.30
2022-08-08T18:15:07.474Z,36.28
2022-08-08T18:18:09.165Z,36.43
2022-08-08T18:20:44.294Z,36.48
2022-08-08T18:23:14.695Z,36.55
2022-08-08T18:25:42.253Z,36.69
2022-08-08T18:28:13.107Z,36.74
2022-08-08T18:30:39.993Z,36.90
2022-08-08T18:33:07.456Z,36.84
2022-08-08T18:35:41.762Z,36.89
2022-08-08T18:38:16.830Z,36.86
2022-08-08T18:40:45.822Z,36.92
2022-08-08T18:43:16.233Z,36.92
2022-08-08T18:45:45.062Z,37.03
2022-08-08T18:48:30.480Z,37.08
2022-08-08T18:50:58.479Z,37.01
2022-08-08T18:54:01.007Z,37.11
2022-08-08T18:56:26.354Z,37.15
2022-08-08T18:58:53.533Z,37.12
2022-08-08T19:02:26.123Z,37.10
2022-08-08T19:04:10.922Z,37.19
2022-08-08T19:06:39.208Z,37.14
2022-08-08T19:09:13.381Z,37.21
2022-08-08T19:11:46.461Z,37.22
2022-08-08T19:14:13.632Z,37.24
2022-08-08T19:16:47.632Z,37.25
2022-08-08T19:19:14.805Z,37.23
2022-08-08T19:21:48.802Z,37.24
2022-08-08T19:24:38.667Z,37.21
2022-08-08T19:27:03.960Z,37.23
2022-08-08T19:29:30.655Z,37.22
2022-08-08T19:31:57.799Z,37.24
2022-08-08T19:34:30.134Z,37.27
2022-08-08T19:37:03.056Z,37.26
2022-08-08T19:39:30.820Z,37.37
2022-08-08T19:42:06.587Z,37.39
2022-08-08T19:44:45.785Z,37.54
2022-08-08T19:47:15.657Z,37.78
2022-08-08T19:49:43.611Z,37.77
2022-08-08T19:52:35.043Z,37.82
2022-08-08T19:55:13.017Z,37.84
2022-08-08T19:57:42.578Z,37.80
2022-08-08T20:00:29.935Z,37.91
2022-08-08T20:02:57.900Z,37.94
2022-08-08T20:06:13.362Z,37.92
2022-08-08T20:08:37.456Z,37.99
2022-08-08T20:10:59.202Z,38.27
2022-08-08T20:14:12.148Z,38.29
2022-08-08T20:16:13.093Z,38.40
2022-08-08T20:18:52.947Z,38.41
2022-08-08T20:21:25.010Z,38.41
2022-08-08T20:23:54.234Z,38.43
2022-08-08T20:26:27.458Z,38.47
2022-08-08T20:28:54.429Z,38.62
2022-08-08T20:31:22.455Z,38.75
2022-08-08T20:34:30.573Z,38.76
2022-08-08T20:36:38.581Z,38.77
2022-08-08T20:39:06.097Z,38.78
2022-08-08T20:41:33.831Z,38.69
2022-08-08T20:44:01.083Z,38.69
2022-08-08T20:46:27.683Z,38.72
2022-08-08T20:48:58.569Z,38.69
2022-08-08T20:51:31.648Z,38.70
2022-08-08T20:54:09.281Z,38.70
2022-08-08T20:57:04.279Z,38.71
2022-08-08T20:59:24.712Z,38.70
2022-08-08T21:02:07.654Z,38.68
2022-08-08T21:04:36.762Z,38.66
2022-08-08T21:07:04.998Z,38.69
2022-08-08T21:10:01.703Z,38.67
2022-08-08T21:12:24.897Z,38.66
2022-08-08T21:15:06.956Z,38.66
2022-08-08T21:17:34.565Z,38.68
2022-08-08T21:20:03.779Z,38.69
2022-08-08T21:22:30.524Z,38.69
2022-08-08T21:24:57.191Z,38.73
2022-08-08T21:28:05.386Z,38.74
2022-08-08T21:30:19.042Z,38.74
2022-08-08T21:32:51.158Z,38.75
2022-08-08T21:36:13.931Z,38.77
2022-08-08T21:38:16.068Z,38.73
2022-08-08T21:40:55.709Z,38.69
2022-08-08T21:43:32.868Z,38.68
2022-08-08T21:48:01.814Z,38.68
2022-08-08T21:48:53.038Z,38.66
2022-08-08T21:54:16.842Z,38.64
2022-08-08T21:54:32.567Z,38.64
2022-08-08T21:56:56.275Z,38.62
2022-08-08T21:59:23.018Z,38.62
2022-08-08T22:01:52.459Z,38.62
2022-08-08T22:04:24.834Z,38.62
2022-08-08T22:06:52.230Z,38.65
2022-08-08T22:09:18.872Z,38.66
2022-08-08T22:12:02.522Z,38.67
2022-08-08T22:14:33.798Z,38.65
2022-08-08T22:17:01.165Z,38.59
2022-08-08T22:19:29.509Z,38.61
2022-08-08T22:21:56.539Z,38.56
2022-08-08T22:24:28.121Z,38.55
2022-08-08T22:27:01.857Z,38.55
2022-08-08T22:29:59.055Z,38.55
2022-08-08T22:32:19.332Z,38.53
2022-08-08T22:34:50.441Z,38.52
2022-08-08T22:37:48.800Z,38.49
2022-08-08T22:40:06.646Z,38.52
2022-08-08T22:42:34.869Z,38.51
2022-08-08T22:45:12.155Z,38.51
2022-08-08T22:47:41.518Z,38.50
2022-08-08T22:50:26.411Z,38.50
2022-08-08T22:54:32.496Z,38.54
2022-08-08T22:55:59.641Z,38.52
2022-08-08T22:58:33.186Z,38.50
2022-08-08T23:01:01.038Z,38.52
2022-08-08T23:03:34.276Z,38.54
2022-08-08T23:06:15.916Z,38.57
2022-08-08T23:08:44.636Z,38.58
2022-08-08T23:11:22.867Z,38.64
2022-08-08T23:14:01.694Z,38.67
2022-08-08T23:16:42.040Z,38.67
2022-08-08T23:19:10.227Z,38.67
2022-08-08T23:21:38.057Z,38.69
2022-08-08T23:24:06.038Z,38.70
2022-08-08T23:26:33.035Z,38.68
2022-08-08T23:29:01.557Z,38.71
2022-08-08T23:31:28.129Z,38.73
2022-08-08T23:34:17.129Z,38.75
2022-08-08T23:36:41.286Z,38.73
2022-08-08T23:39:09.222Z,38.78
2022-08-08T23:41:46.287Z,38.77
2022-08-08T23:44:14.316Z,38.83
2022-08-08T23:49:00.923Z,38.82
2022-08-08T23:49:27.572Z,38.82
2022-08-08T23:52:06.104Z,38.82
2022-08-08T23:54:42.008Z,38.85
2022-08-08T23:57:26.558Z,38.86
2022-08-08T23:59:55.613Z,38.87
